sensor_id;sensor_type;location;lat;lon;timestamp;temperature;humidity
62581;DHT22;48640;48.770;9.148;2023-11-19T00:00:06;8.80;99.90
62581;DHT22;48640;48.770;9.148;2023-11-19T00:02:36;8.90;99.90
62581;DHT22;48640;48.770;9.148;2023-11-19T00:05:04;8.90;99.90
62581;DHT22;48640;48.770;9.148;2023-11-19T00:07:34;8.90;99.90
62581;DHT22;48640;48.770;9.148;2023-11-19T00:10:01;9.00;99.90
62581;DHT22;48640;48.770;9.148;2023-11-19T00:12:37;9.00;99.90
62581;DHT22;48640;48.770;9.148;2023-11-19T00:15:06;9.10;99.90
62581;DHT22;48640;48.770;9.148;2023-11-19T00:17:36;9.20;99.90
62581;DHT22;48640;48.770;9.148;2023-11-19T00:20:10;9.30;99.90
62581;DHT22;48640;48.770;9.148;2023-11-19T00:22:39;9.40;99.90
62581;DHT22;48640;48.770;9.148;2023-11-19T00:25:08;9.50;99.90
62581;DHT22;48640;48.770;9.148;2023-11-19T00:27:34;9.60;99.90
62581;DHT22;48640;48.770;9.148;2023-11-19T00:30:03;9.60;99.90
62581;DHT22;48640;48.770;9.148;2023-11-19T00:32:31;9.60;99.90
62581;DHT22;48640;48.770;9.148;2023-11-19T00:34:57;9.60;99.90
62581;DHT22;48640;48.770;9.148;2023-11-19T00:37:24;9.70;99.90
62581;DHT22;48640;48.770;9.148;2023-11-19T00:39:53;9.70;99.90
62581;DHT22;48640;48.770;9.148;2023-11-19T00:42:21;9.80;99.90
62581;DHT22;48640;48.770;9.148;2023-11-19T00:44:49;9.80;99.90
62581;DHT22;48640;48.770;9.148;2023-11-19T00:47:16;9.80;99.90
62581;DHT22;48640;48.770;9.148;2023-11-19T00:49:45;9.80;99.90
62581;DHT22;48640;48.770;9.148;2023-11-19T00:52:13;9.80;99.90
62581;DHT22;48640;48.770;9.148;2023-11-19T00:54:40;9.90;99.90
62581;DHT22;48640;48.770;9.148;2023-11-19T00:57:09;9.90;99.90
62581;DHT22;48640;48.770;9.148;2023-11-19T00:59:36;9.90;99.90
62581;DHT22;48640;48.770;9.148;2023-11-19T01:02:03;9.90;99.90
62581;DHT22;48640;48.770;9.148;2023-11-19T01:04:33;10.00;99.90
62581;DHT22;48640;48.770;9.148;2023-11-19T01:07:02;10.00;99.90
62581;DHT22;48640;48.770;9.148;2023-11-19T01:09:30;10.00;99.90
62581;DHT22;48640;48.770;9.148;2023-11-19T01:12:00;10.00;99.90
62581;DHT22;48640;48.770;9.148;2023-11-19T01:14:28;10.00;99.90
62581;DHT22;48640;48.770;9.148;2023-11-19T01:16:56;10.10;99.90
62581;DHT22;48640;48.770;9.148;2023-11-19T01:19:23;10.10;99.90
62581;DHT22;48640;48.770;9.148;2023-11-19T01:21:50;10.20;99.90
62581;DHT22;48640;48.770;9.148;2023-11-19T01:24:18;10.20;99.90
62581;DHT22;48640;48.770;9.148;2023-11-19T01:26:44;10.20;99.90
62581;DHT22;48640;48.770;9.148;2023-11-19T01:29:12;10.20;99.90
62581;DHT22;48640;48.770;9.148;2023-11-19T01:31:42;10.30;99.90
62581;DHT22;48640;48.770;9.148;2023-11-19T01:34:09;10.30;99.90
62581;DHT22;48640;48.770;9.148;2023-11-19T01:36:37;10.30;99.90
62581;DHT22;48640;48.770;9.148;2023-11-19T01:39:03;10.30;99.90
62581;DHT22;48640;48.770;9.148;2023-11-19T01:41:34;10.30;99.90
62581;DHT22;48640;48.770;9.148;2023-11-19T01:44:01;10.30;99.90
62581;DHT22;48640;48.770;9.148;2023-11-19T01:46:27;10.40;99.90
62581;DHT22;48640;48.770;9.148;2023-11-19T01:48:55;10.40;99.90
62581;DHT22;48640;48.770;9.148;2023-11-19T01:51:22;10.40;99.90
62581;DHT22;48640;48.770;9.148;2023-11-19T01:53:50;10.50;99.90
62581;DHT22;48640;48.770;9.148;2023-11-19T01:56:18;10.50;99.90
62581;DHT22;48640;48.770;9.148;2023-11-19T01:58:45;10.50;99.90
62581;DHT22;48640;48.770;9.148;2023-11-19T02:01:13;10.50;99.90
62581;DHT22;48640;48.770;9.148;2023-11-19T02:03:41;10.60;99.90
62581;DHT22;48640;48.770;9.148;2023-11-19T02:06:10;10.60;99.90
62581;DHT22;48640;48.770;9.148;2023-11-19T02:08:37;10.60;99.90
62581;DHT22;48640;48.770;9.148;2023-11-19T02:11:05;10.60;99.90
62581;DHT22;48640;48.770;9.148;2023-11-19T02:13:32;10.60;99.90
62581;DHT22;48640;48.770;9.148;2023-11-19T02:16:01;10.60;99.90
62581;DHT22;48640;48.770;9.148;2023-11-19T02:18:29;10.60;99.90
62581;DHT22;48640;48.770;9.148;2023-11-19T02:20:56;10.60;99.90
62581;DHT22;48640;48.770;9.148;2023-11-19T02:23:26;10.60;99.90
62581;DHT22;48640;48.770;9.148;2023-11-19T02:26:09;10.70;99.90
62581;DHT22;48640;48.770;9.148;2023-11-19T02:28:41;10.60;99.90
62581;DHT22;48640;48.770;9.148;2023-11-19T02:31:08;10.60;99.90
62581;DHT22;48640;48.770;9.148;2023-11-19T02:33:36;10.60;99.90
62581;DHT22;48640;48.770;9.148;2023-11-19T02:36:03;10.70;99.90
62581;DHT22;48640;48.770;9.148;2023-11-19T02:38:31;10.70;99.90
62581;DHT22;48640;48.770;9.148;2023-11-19T02:40:57;10.70;99.90
62581;DHT22;48640;48.770;9.148;2023-11-19T02:43:25;10.70;99.90
62581;DHT22;48640;48.770;9.148;2023-11-19T02:45:53;10.70;99.90
62581;DHT22;48640;48.770;9.148;2023-11-19T02:48:21;10.80;99.90
62581;DHT22;48640;48.770;9.148;2023-11-19T02:50:48;10.80;99.90
62581;DHT22;48640;48.770;9.148;2023-11-19T02:53:15;10.80;99.90
62581;DHT22;48640;48.770;9.148;2023-11-19T02:55:43;10.80;99.90
62581;DHT22;48640;48.770;9.148;2023-11-19T02:58:15;10.70;99.90
62581;DHT22;48640;48.770;9.148;2023-11-19T03:00:49;10.80;99.90
62581;DHT22;48640;48.770;9.148;2023-11-19T03:03:24;10.80;99.90
62581;DHT22;48640;48.770;9.148;2023-11-19T03:05:56;10.80;99.90
62581;DHT22;48640;48.770;9.148;2023-11-19T03:08:23;10.80;99.90
62581;DHT22;48640;48.770;9.148;2023-11-19T03:10:50;10.80;99.90
62581;DHT22;48640;48.770;9.148;2023-11-19T03:13:17;10.80;99.90
62581;DHT22;48640;48.770;9.148;2023-11-19T03:15:44;10.90;99.90
62581;DHT22;48640;48.770;9.148;2023-11-19T03:18:11;10.90;99.90
62581;DHT22;48640;48.770;9.148;2023-11-19T03:20:39;10.90;99.90
62581;DHT22;48640;48.770;9.148;2023-11-19T03:23:06;10.90;99.90
62581;DHT22;48640;48.770;9.148;2023-11-19T03:25:32;10.90;99.90
62581;DHT22;48640;48.770;9.148;2023-11-19T03:28:01;10.90;99.90
62581;DHT22;48640;48.770;9.148;2023-11-19T03:30:29;10.90;99.90
62581;DHT22;48640;48.770;9.148;2023-11-19T03:32:57;11.00;99.90
62581;DHT22;48640;48.770;9.148;2023-11-19T03:35:24;11.00;99.90
62581;DHT22;48640;48.770;9.148;2023-11-19T03:37:52;11.00;99.90
62581;DHT22;48640;48.770;9.148;2023-11-19T03:40:19;11.00;99.90
62581;DHT22;48640;48.770;9.148;2023-11-19T03:42:46;11.00;99.90
62581;DHT22;48640;48.770;9.148;2023-11-19T03:45:13;11.00;99.90
62581;DHT22;48640;48.770;9.148;2023-11-19T03:47:41;10.90;99.90
62581;DHT22;48640;48.770;9.148;2023-11-19T03:50:08;10.90;99.90
62581;DHT22;48640;48.770;9.148;2023-11-19T03:52:35;11.00;99.90
62581;DHT22;48640;48.770;9.148;2023-11-19T03:55:04;11.00;99.90
62581;DHT22;48640;48.770;9.148;2023-11-19T03:57:31;11.00;99.90
62581;DHT22;48640;48.770;9.148;2023-11-19T03:59:58;11.00;99.90
62581;DHT22;48640;48.770;9.148;2023-11-19T04:02:25;11.00;99.90
62581;DHT22;48640;48.770;9.148;2023-11-19T04:04:53;11.10;99.90
62581;DHT22;48640;48.770;9.148;2023-11-19T04:07:21;11.10;99.90
62581;DHT22;48640;48.770;9.148;2023-11-19T04:09:48;11.10;99.90
62581;DHT22;48640;48.770;9.148;2023-11-19T04:12:16;11.10;99.90
62581;DHT22;48640;48.770;9.148;2023-11-19T04:14:43;11.10;99.90
62581;DHT22;48640;48.770;9.148;2023-11-19T04:17:10;11.10;99.90
62581;DHT22;48640;48.770;9.148;2023-11-19T04:19:37;11.10;99.90
62581;DHT22;48640;48.770;9.148;2023-11-19T04:22:06;11.10;99.90
62581;DHT22;48640;48.770;9.148;2023-11-19T04:24:33;11.20;99.90
62581;DHT22;48640;48.770;9.148;2023-11-19T04:27:00;11.20;99.90
62581;DHT22;48640;48.770;9.148;2023-11-19T04:29:30;11.20;99.90
62581;DHT22;48640;48.770;9.148;2023-11-19T04:31:57;11.20;99.90
62581;DHT22;48640;48.770;9.148;2023-11-19T04:34:24;11.30;99.90
62581;DHT22;48640;48.770;9.148;2023-11-19T04:36:51;11.30;99.90
62581;DHT22;48640;48.770;9.148;2023-11-19T04:39:18;11.30;99.90
62581;DHT22;48640;48.770;9.148;2023-11-19T04:41:49;11.30;99.90
62581;DHT22;48640;48.770;9.148;2023-11-19T04:44:17;11.30;99.90
62581;DHT22;48640;48.770;9.148;2023-11-19T04:46:45;11.30;99.90
62581;DHT22;48640;48.770;9.148;2023-11-19T04:49:13;11.40;99.90
62581;DHT22;48640;48.770;9.148;2023-11-19T04:51:40;11.40;99.90
62581;DHT22;48640;48.770;9.148;2023-11-19T04:54:08;11.40;99.90
62581;DHT22;48640;48.770;9.148;2023-11-19T04:56:35;11.40;99.90
62581;DHT22;48640;48.770;9.148;2023-11-19T04:59:03;11.40;99.90
62581;DHT22;48640;48.770;9.148;2023-11-19T05:01:31;11.40;99.90
62581;DHT22;48640;48.770;9.148;2023-11-19T05:04:00;11.50;99.90
62581;DHT22;48640;48.770;9.148;2023-11-19T05:06:27;11.50;99.90
62581;DHT22;48640;48.770;9.148;2023-11-19T05:08:54;11.50;99.90
62581;DHT22;48640;48.770;9.148;2023-11-19T05:11:22;11.60;99.90
62581;DHT22;48640;48.770;9.148;2023-11-19T05:13:49;11.60;99.90
62581;DHT22;48640;48.770;9.148;2023-11-19T05:16:16;11.60;99.90
62581;DHT22;48640;48.770;9.148;2023-11-19T05:18:44;11.50;99.90
62581;DHT22;48640;48.770;9.148;2023-11-19T05:21:13;11.60;99.90
62581;DHT22;48640;48.770;9.148;2023-11-19T05:23:40;11.60;99.90
62581;DHT22;48640;48.770;9.148;2023-11-19T05:26:07;11.70;99.90
62581;DHT22;48640;48.770;9.148;2023-11-19T05:28:34;11.70;99.90
62581;DHT22;48640;48.770;9.148;2023-11-19T05:31:01;11.70;99.90
62581;DHT22;48640;48.770;9.148;2023-11-19T05:33:28;11.70;99.90
62581;DHT22;48640;48.770;9.148;2023-11-19T05:35:55;11.70;99.90
62581;DHT22;48640;48.770;9.148;2023-11-19T05:38:24;11.70;99.90
62581;DHT22;48640;48.770;9.148;2023-11-19T05:40:51;11.70;99.90
62581;DHT22;48640;48.770;9.148;2023-11-19T05:43:17;11.70;99.90
62581;DHT22;48640;48.770;9.148;2023-11-19T05:45:44;11.80;99.90
62581;DHT22;48640;48.770;9.148;2023-11-19T05:48:12;11.80;99.90
62581;DHT22;48640;48.770;9.148;2023-11-19T05:50:39;11.80;99.90
62581;DHT22;48640;48.770;9.148;2023-11-19T05:53:05;11.80;99.90
62581;DHT22;48640;48.770;9.148;2023-11-19T05:55:37;11.80;99.90
62581;DHT22;48640;48.770;9.148;2023-11-19T05:58:10;11.80;99.90
62581;DHT22;48640;48.770;9.148;2023-11-19T06:00:38;11.90;99.90
62581;DHT22;48640;48.770;9.148;2023-11-19T06:03:05;11.90;99.90
62581;DHT22;48640;48.770;9.148;2023-11-19T06:05:32;11.90;99.90
62581;DHT22;48640;48.770;9.148;2023-11-19T06:07:59;11.90;99.90
62581;DHT22;48640;48.770;9.148;2023-11-19T06:10:26;11.80;99.90
62581;DHT22;48640;48.770;9.148;2023-11-19T06:12:58;11.80;99.90
62581;DHT22;48640;48.770;9.148;2023-11-19T06:15:25;11.80;99.90
62581;DHT22;48640;48.770;9.148;2023-11-19T06:17:52;11.70;99.90
62581;DHT22;48640;48.770;9.148;2023-11-19T06:20:19;11.70;99.90
62581;DHT22;48640;48.770;9.148;2023-11-19T06:22:46;11.70;99.90
62581;DHT22;48640;48.770;9.148;2023-11-19T06:25:13;11.70;99.90
62581;DHT22;48640;48.770;9.148;2023-11-19T06:27:41;11.70;99.90
62581;DHT22;48640;48.770;9.148;2023-11-19T06:30:10;11.70;99.90
62581;DHT22;48640;48.770;9.148;2023-11-19T06:32:38;11.70;99.90
62581;DHT22;48640;48.770;9.148;2023-11-19T06:35:05;11.70;99.90
62581;DHT22;48640;48.770;9.148;2023-11-19T06:37:32;11.70;99.90
62581;DHT22;48640;48.770;9.148;2023-11-19T06:40:00;11.80;99.90
62581;DHT22;48640;48.770;9.148;2023-11-19T06:42:30;11.80;99.90
62581;DHT22;48640;48.770;9.148;2023-11-19T06:44:57;11.80;99.90
62581;DHT22;48640;48.770;9.148;2023-11-19T06:47:27;11.80;99.90
62581;DHT22;48640;48.770;9.148;2023-11-19T06:49:54;11.80;99.90
62581;DHT22;48640;48.770;9.148;2023-11-19T06:52:21;11.80;99.90
62581;DHT22;48640;48.770;9.148;2023-11-19T06:54:48;11.80;99.90
62581;DHT22;48640;48.770;9.148;2023-11-19T06:57:16;11.80;99.90
62581;DHT22;48640;48.770;9.148;2023-11-19T06:59:43;11.80;99.90
62581;DHT22;48640;48.770;9.148;2023-11-19T07:02:10;11.80;99.90
62581;DHT22;48640;48.770;9.148;2023-11-19T07:04:38;11.80;99.90
62581;DHT22;48640;48.770;9.148;2023-11-19T07:07:06;11.90;99.90
62581;DHT22;48640;48.770;9.148;2023-11-19T07:09:33;11.90;99.90
62581;DHT22;48640;48.770;9.148;2023-11-19T07:12:00;11.80;99.90
62581;DHT22;48640;48.770;9.148;2023-11-19T07:14:30;11.80;99.90
62581;DHT22;48640;48.770;9.148;2023-11-19T07:16:57;11.90;99.90
62581;DHT22;48640;48.770;9.148;2023-11-19T07:19:24;11.90;99.90
62581;DHT22;48640;48.770;9.148;2023-11-19T07:21:52;11.80;99.90
62581;DHT22;48640;48.770;9.148;2023-11-19T07:24:20;11.80;99.90
62581;DHT22;48640;48.770;9.148;2023-11-19T07:26:48;11.80;99.90
62581;DHT22;48640;48.770;9.148;2023-11-19T07:29:16;11.90;99.90
62581;DHT22;48640;48.770;9.148;2023-11-19T07:31:43;11.90;99.90
62581;DHT22;48640;48.770;9.148;2023-11-19T07:34:11;11.90;99.90
62581;DHT22;48640;48.770;9.148;2023-11-19T07:36:39;11.90;99.90
62581;DHT22;48640;48.770;9.148;2023-11-19T07:39:08;11.90;99.90
62581;DHT22;48640;48.770;9.148;2023-11-19T07:41:36;12.00;99.90
62581;DHT22;48640;48.770;9.148;2023-11-19T07:44:03;12.00;99.90
62581;DHT22;48640;48.770;9.148;2023-11-19T07:46:30;12.00;99.90
62581;DHT22;48640;48.770;9.148;2023-11-19T07:48:58;12.00;99.90
62581;DHT22;48640;48.770;9.148;2023-11-19T07:51:25;12.00;99.90
62581;DHT22;48640;48.770;9.148;2023-11-19T07:54:04;12.00;99.90
62581;DHT22;48640;48.770;9.148;2023-11-19T07:56:35;12.00;99.90
62581;DHT22;48640;48.770;9.148;2023-11-19T07:59:02;12.10;99.90
62581;DHT22;48640;48.770;9.148;2023-11-19T08:01:30;12.10;99.90
62581;DHT22;48640;48.770;9.148;2023-11-19T08:03:57;12.10;99.90
62581;DHT22;48640;48.770;9.148;2023-11-19T08:06:27;12.10;99.90
62581;DHT22;48640;48.770;9.148;2023-11-19T08:08:54;12.10;99.90
62581;DHT22;48640;48.770;9.148;2023-11-19T08:11:21;12.30;99.90
62581;DHT22;48640;48.770;9.148;2023-11-19T08:13:49;12.30;99.90
62581;DHT22;48640;48.770;9.148;2023-11-19T08:16:16;12.30;99.90
62581;DHT22;48640;48.770;9.148;2023-11-19T08:18:43;12.30;99.90
62581;DHT22;48640;48.770;9.148;2023-11-19T08:21:10;12.40;99.90
62581;DHT22;48640;48.770;9.148;2023-11-19T08:23:37;12.40;99.90
62581;DHT22;48640;48.770;9.148;2023-11-19T08:26:04;12.50;99.90
62581;DHT22;48640;48.770;9.148;2023-11-19T08:28:31;12.50;99.90
62581;DHT22;48640;48.770;9.148;2023-11-19T08:31:01;12.50;99.90
62581;DHT22;48640;48.770;9.148;2023-11-19T08:33:29;12.50;99.90
62581;DHT22;48640;48.770;9.148;2023-11-19T08:35:56;12.70;99.90
62581;DHT22;48640;48.770;9.148;2023-11-19T08:38:24;12.80;99.90
62581;DHT22;48640;48.770;9.148;2023-11-19T08:40:51;13.00;99.90
62581;DHT22;48640;48.770;9.148;2023-11-19T08:43:18;13.00;99.90
62581;DHT22;48640;48.770;9.148;2023-11-19T08:45:45;13.10;99.90
62581;DHT22;48640;48.770;9.148;2023-11-19T08:48:15;13.20;99.90
62581;DHT22;48640;48.770;9.148;2023-11-19T08:50:43;13.20;99.90
62581;DHT22;48640;48.770;9.148;2023-11-19T08:53:10;13.20;99.90
62581;DHT22;48640;48.770;9.148;2023-11-19T08:55:37;13.20;99.90
62581;DHT22;48640;48.770;9.148;2023-11-19T08:58:04;13.20;99.90
62581;DHT22;48640;48.770;9.148;2023-11-19T09:00:31;13.20;99.90
62581;DHT22;48640;48.770;9.148;2023-11-19T09:02:59;13.20;99.90
62581;DHT22;48640;48.770;9.148;2023-11-19T09:05:37;13.30;99.90
62581;DHT22;48640;48.770;9.148;2023-11-19T09:08:06;13.50;99.90
62581;DHT22;48640;48.770;9.148;2023-11-19T09:10:33;13.60;99.90
62581;DHT22;48640;48.770;9.148;2023-11-19T09:13:00;13.70;99.90
62581;DHT22;48640;48.770;9.148;2023-11-19T09:15:27;13.90;99.90
62581;DHT22;48640;48.770;9.148;2023-11-19T09:17:56;14.00;99.90
62581;DHT22;48640;48.770;9.148;2023-11-19T09:20:24;14.00;99.90
62581;DHT22;48640;48.770;9.148;2023-11-19T09:22:54;14.00;99.90
62581;DHT22;48640;48.770;9.148;2023-11-19T09:25:21;13.90;99.90
62581;DHT22;48640;48.770;9.148;2023-11-19T09:27:48;13.90;99.90
62581;DHT22;48640;48.770;9.148;2023-11-19T09:30:15;13.90;99.90
62581;DHT22;48640;48.770;9.148;2023-11-19T09:32:42;13.90;99.90
62581;DHT22;48640;48.770;9.148;2023-11-19T09:35:09;13.90;99.90
62581;DHT22;48640;48.770;9.148;2023-11-19T09:37:38;14.20;99.90
62581;DHT22;48640;48.770;9.148;2023-11-19T09:40:08;14.50;99.90
62581;DHT22;48640;48.770;9.148;2023-11-19T09:42:42;14.60;99.90
62581;DHT22;48640;48.770;9.148;2023-11-19T09:45:13;14.60;99.90
62581;DHT22;48640;48.770;9.148;2023-11-19T09:47:42;14.60;99.90
62581;DHT22;48640;48.770;9.148;2023-11-19T09:50:11;14.50;99.90
62581;DHT22;48640;48.770;9.148;2023-11-19T09:52:41;14.40;99.90
62581;DHT22;48640;48.770;9.148;2023-11-19T09:55:09;14.40;99.90
62581;DHT22;48640;48.770;9.148;2023-11-19T09:57:38;14.40;99.90
62581;DHT22;48640;48.770;9.148;2023-11-19T10:00:06;14.30;99.90
62581;DHT22;48640;48.770;9.148;2023-11-19T10:02:37;14.30;99.90
62581;DHT22;48640;48.770;9.148;2023-11-19T10:05:07;14.40;99.90
62581;DHT22;48640;48.770;9.148;2023-11-19T10:07:35;14.60;99.90
62581;DHT22;48640;48.770;9.148;2023-11-19T10:10:03;14.50;99.90
62581;DHT22;48640;48.770;9.148;2023-11-19T10:12:32;14.60;99.90
62581;DHT22;48640;48.770;9.148;2023-11-19T10:14:59;14.60;99.90
62581;DHT22;48640;48.770;9.148;2023-11-19T10:17:32;14.70;99.90
62581;DHT22;48640;48.770;9.148;2023-11-19T10:19:59;14.70;99.90
62581;DHT22;48640;48.770;9.148;2023-11-19T10:22:27;14.90;99.90
62581;DHT22;48640;48.770;9.148;2023-11-19T10:24:54;15.00;99.90
62581;DHT22;48640;48.770;9.148;2023-11-19T10:27:24;15.20;99.90
62581;DHT22;48640;48.770;9.148;2023-11-19T10:29:52;15.30;99.90
62581;DHT22;48640;48.770;9.148;2023-11-19T10:32:19;15.50;99.90
62581;DHT22;48640;48.770;9.148;2023-11-19T10:34:46;15.60;99.90
62581;DHT22;48640;48.770;9.148;2023-11-19T10:37:27;15.50;99.90
62581;DHT22;48640;48.770;9.148;2023-11-19T10:39:57;15.50;99.90
62581;DHT22;48640;48.770;9.148;2023-11-19T10:42:24;15.70;99.90
62581;DHT22;48640;48.770;9.148;2023-11-19T10:44:53;15.70;99.90
62581;DHT22;48640;48.770;9.148;2023-11-19T10:47:20;15.60;99.90
62581;DHT22;48640;48.770;9.148;2023-11-19T10:49:49;15.50;99.90
62581;DHT22;48640;48.770;9.148;2023-11-19T10:52:18;15.40;99.90
62581;DHT22;48640;48.770;9.148;2023-11-19T10:54:49;15.50;99.90
62581;DHT22;48640;48.770;9.148;2023-11-19T10:57:19;15.70;99.90
62581;DHT22;48640;48.770;9.148;2023-11-19T10:59:47;15.70;99.90
62581;DHT22;48640;48.770;9.148;2023-11-19T11:02:19;15.80;99.90
62581;DHT22;48640;48.770;9.148;2023-11-19T11:04:47;15.80;99.90
62581;DHT22;48640;48.770;9.148;2023-11-19T11:07:19;15.90;99.90
62581;DHT22;48640;48.770;9.148;2023-11-19T11:09:48;16.00;99.90
62581;DHT22;48640;48.770;9.148;2023-11-19T11:12:17;16.00;99.90
62581;DHT22;48640;48.770;9.148;2023-11-19T11:14:49;16.00;99.90
62581;DHT22;48640;48.770;9.148;2023-11-19T11:17:18;15.90;99.90
62581;DHT22;48640;48.770;9.148;2023-11-19T11:19:45;15.80;98.30
62581;DHT22;48640;48.770;9.148;2023-11-19T11:22:14;15.70;97.20
62581;DHT22;48640;48.770;9.148;2023-11-19T11:25:02;15.60;97.60
62581;DHT22;48640;48.770;9.148;2023-11-19T11:27:53;15.60;98.20
62581;DHT22;48640;48.770;9.148;2023-11-19T11:30:31;15.60;98.10
62581;DHT22;48640;48.770;9.148;2023-11-19T11:33:10;15.60;97.80
62581;DHT22;48640;48.770;9.148;2023-11-19T11:35:49;15.60;98.00
62581;DHT22;48640;48.770;9.148;2023-11-19T11:38:22;15.50;98.30
62581;DHT22;48640;48.770;9.148;2023-11-19T11:41:17;15.40;97.40
62581;DHT22;48640;48.770;9.148;2023-11-19T11:43:46;15.40;97.80
62581;DHT22;48640;48.770;9.148;2023-11-19T11:49:25;15.10;98.80
62581;DHT22;48640;48.770;9.148;2023-11-19T11:51:58;15.20;98.70
62581;DHT22;48640;48.770;9.148;2023-11-19T11:54:26;15.40;98.30
62581;DHT22;48640;48.770;9.148;2023-11-19T11:57:07;15.60;98.20
62581;DHT22;48640;48.770;9.148;2023-11-19T11:59:45;15.80;98.60
62581;DHT22;48640;48.770;9.148;2023-11-19T12:02:13;16.00;98.70
62581;DHT22;48640;48.770;9.148;2023-11-19T12:04:46;16.10;97.70
62581;DHT22;48640;48.770;9.148;2023-11-19T12:07:14;16.00;96.80
62581;DHT22;48640;48.770;9.148;2023-11-19T12:09:42;16.00;96.40
62581;DHT22;48640;48.770;9.148;2023-11-19T12:12:18;16.10;96.70
62581;DHT22;48640;48.770;9.148;2023-11-19T12:15:05;16.10;96.50
62581;DHT22;48640;48.770;9.148;2023-11-19T12:17:49;16.20;95.30
62581;DHT22;48640;48.770;9.148;2023-11-19T12:20:17;16.20;95.40
62581;DHT22;48640;48.770;9.148;2023-11-19T12:22:45;16.10;95.50
62581;DHT22;48640;48.770;9.148;2023-11-19T12:25:15;16.10;94.90
62581;DHT22;48640;48.770;9.148;2023-11-19T12:27:44;16.10;94.80
62581;DHT22;48640;48.770;9.148;2023-11-19T12:30:11;16.20;95.10
62581;DHT22;48640;48.770;9.148;2023-11-19T12:32:39;16.20;95.10
62581;DHT22;48640;48.770;9.148;2023-11-19T12:35:07;16.20;94.20
62581;DHT22;48640;48.770;9.148;2023-11-19T12:37:41;16.20;93.40
62581;DHT22;48640;48.770;9.148;2023-11-19T12:40:12;16.00;93.10
62581;DHT22;48640;48.770;9.148;2023-11-19T12:42:39;16.00;93.30
62581;DHT22;48640;48.770;9.148;2023-11-19T12:45:07;15.80;93.20
62581;DHT22;48640;48.770;9.148;2023-11-19T12:47:34;15.60;92.80
62581;DHT22;48640;48.770;9.148;2023-11-19T12:50:02;15.60;93.40
62581;DHT22;48640;48.770;9.148;2023-11-19T12:52:29;15.60;93.50
62581;DHT22;48640;48.770;9.148;2023-11-19T12:54:58;15.60;92.80
62581;DHT22;48640;48.770;9.148;2023-11-19T12:57:38;15.60;93.00
62581;DHT22;48640;48.770;9.148;2023-11-19T13:00:06;15.60;92.80
62581;DHT22;48640;48.770;9.148;2023-11-19T13:02:46;15.50;92.70
62581;DHT22;48640;48.770;9.148;2023-11-19T13:05:24;15.50;93.90
62581;DHT22;48640;48.770;9.148;2023-11-19T13:07:57;15.40;93.40
62581;DHT22;48640;48.770;9.148;2023-11-19T13:10:26;15.40;93.60
62581;DHT22;48640;48.770;9.148;2023-11-19T13:13:05;15.30;93.40
62581;DHT22;48640;48.770;9.148;2023-11-19T13:15:34;15.30;92.50
62581;DHT22;48640;48.770;9.148;2023-11-19T13:18:01;15.20;92.00
62581;DHT22;48640;48.770;9.148;2023-11-19T13:20:28;15.30;92.10
62581;DHT22;48640;48.770;9.148;2023-11-19T13:22:56;15.20;92.60
62581;DHT22;48640;48.770;9.148;2023-11-19T13:25:23;15.30;91.90
62581;DHT22;48640;48.770;9.148;2023-11-19T13:27:52;15.30;91.10
62581;DHT22;48640;48.770;9.148;2023-11-19T13:30:19;15.30;91.20
62581;DHT22;48640;48.770;9.148;2023-11-19T13:32:45;15.30;91.30
62581;DHT22;48640;48.770;9.148;2023-11-19T13:35:12;15.30;91.80
62581;DHT22;48640;48.770;9.148;2023-11-19T13:37:39;15.30;90.90
62581;DHT22;48640;48.770;9.148;2023-11-19T13:40:07;15.20;91.80
62581;DHT22;48640;48.770;9.148;2023-11-19T13:42:36;15.20;91.30
62581;DHT22;48640;48.770;9.148;2023-11-19T13:45:08;15.20;91.30
62581;DHT22;48640;48.770;9.148;2023-11-19T13:47:37;15.20;91.30
62581;DHT22;48640;48.770;9.148;2023-11-19T13:50:07;15.10;91.60
62581;DHT22;48640;48.770;9.148;2023-11-19T13:52:35;15.00;91.60
62581;DHT22;48640;48.770;9.148;2023-11-19T13:55:04;14.90;92.10
62581;DHT22;48640;48.770;9.148;2023-11-19T13:57:31;14.80;92.70
62581;DHT22;48640;48.770;9.148;2023-11-19T13:59:59;14.70;93.40
62581;DHT22;48640;48.770;9.148;2023-11-19T14:02:28;14.60;92.80
62581;DHT22;48640;48.770;9.148;2023-11-19T14:04:54;14.60;92.70
62581;DHT22;48640;48.770;9.148;2023-11-19T14:07:21;14.60;91.70
62581;DHT22;48640;48.770;9.148;2023-11-19T14:09:48;14.50;92.50
62581;DHT22;48640;48.770;9.148;2023-11-19T14:12:15;14.40;92.50
62581;DHT22;48640;48.770;9.148;2023-11-19T14:14:43;14.30;92.90
62581;DHT22;48640;48.770;9.148;2023-11-19T14:17:09;14.20;92.80
62581;DHT22;48640;48.770;9.148;2023-11-19T14:19:39;14.30;92.00
62581;DHT22;48640;48.770;9.148;2023-11-19T14:22:06;14.30;92.00
62581;DHT22;48640;48.770;9.148;2023-11-19T14:24:34;14.30;91.70
62581;DHT22;48640;48.770;9.148;2023-11-19T14:27:01;14.40;91.40
62581;DHT22;48640;48.770;9.148;2023-11-19T14:29:28;14.40;91.40
62581;DHT22;48640;48.770;9.148;2023-11-19T14:31:55;14.40;91.70
62581;DHT22;48640;48.770;9.148;2023-11-19T14:34:22;14.40;91.80
62581;DHT22;48640;48.770;9.148;2023-11-19T14:36:51;14.20;92.30
62581;DHT22;48640;48.770;9.148;2023-11-19T14:39:19;14.00;92.50
62581;DHT22;48640;48.770;9.148;2023-11-19T14:41:46;14.00;93.50
62581;DHT22;48640;48.770;9.148;2023-11-19T14:44:13;13.90;93.30
62581;DHT22;48640;48.770;9.148;2023-11-19T14:46:39;13.90;93.50
62581;DHT22;48640;48.770;9.148;2023-11-19T14:49:06;13.90;93.50
62581;DHT22;48640;48.770;9.148;2023-11-19T14:51:35;13.80;93.60
62581;DHT22;48640;48.770;9.148;2023-11-19T14:54:03;13.80;93.80
62581;DHT22;48640;48.770;9.148;2023-11-19T14:56:30;13.70;94.40
62581;DHT22;48640;48.770;9.148;2023-11-19T14:58:57;13.70;94.60
62581;DHT22;48640;48.770;9.148;2023-11-19T15:01:24;13.70;94.60
62581;DHT22;48640;48.770;9.148;2023-11-19T15:03:51;13.70;94.70
62581;DHT22;48640;48.770;9.148;2023-11-19T15:06:18;13.70;94.40
62581;DHT22;48640;48.770;9.148;2023-11-19T15:08:45;13.70;94.30
62581;DHT22;48640;48.770;9.148;2023-11-19T15:11:13;13.70;94.10
62581;DHT22;48640;48.770;9.148;2023-11-19T15:13:40;13.70;94.30
62581;DHT22;48640;48.770;9.148;2023-11-19T15:16:08;13.70;93.80
62581;DHT22;48640;48.770;9.148;2023-11-19T15:18:36;13.60;94.00
62581;DHT22;48640;48.770;9.148;2023-11-19T15:21:03;13.70;93.20
62581;DHT22;48640;48.770;9.148;2023-11-19T15:23:30;13.60;93.30
62581;DHT22;48640;48.770;9.148;2023-11-19T15:25:57;13.60;93.60
62581;DHT22;48640;48.770;9.148;2023-11-19T15:28:25;13.50;93.70
62581;DHT22;48640;48.770;9.148;2023-11-19T15:30:52;13.40;93.60
62581;DHT22;48640;48.770;9.148;2023-11-19T15:33:19;13.40;94.00
62581;DHT22;48640;48.770;9.148;2023-11-19T15:35:45;13.30;94.10
62581;DHT22;48640;48.770;9.148;2023-11-19T15:38:13;13.30;94.00
62581;DHT22;48640;48.770;9.148;2023-11-19T15:40:40;13.30;94.00
62581;DHT22;48640;48.770;9.148;2023-11-19T15:43:08;13.30;93.80